Time;durP1;ratioP1;P1;durP2;ratioP2;P2;SDS_P1;SDS_P2;PMS_P1;PMS_P2;Temp;Humidity;BMP_temperature;BMP_pressure;BME280_temperature;BME280_humidity;BME280_pressure;Samples;Min_cycle;Max_cycle;Signal;HPM_P1;HPM_P2
2023/01/24 00:00:56;;;;;;;;;;;;;;;;;;5029466;28;991;-69
2023/01/24 00:03:22;;;;;;;;;;;;;;;;;;5029547;28;818;-68
2023/01/24 00:05:48;;;;;;;;;;;;;;;;;;5029924;28;868;-69
2023/01/24 00:08:15;;;;;;;;;;;;;;;;;;5030378;28;951;-68
2023/01/24 00:10:41;;;;;;;;;;;;;;;;;;5031185;28;1910;-69
2023/01/24 00:13:06;;;;;;;;;;;;;;;;;;5028524;28;1209;-69
2023/01/24 00:15:31;;;;;;;;;;;;;;;;;;5024821;28;1198;-69
2023/01/24 00:17:57;;;;;;;;;;;;;;;;;;5026714;28;1312;-69
2023/01/24 00:20:22;;;;;;;;;;;;;;;;;;5027010;28;1174;-69
2023/01/24 00:22:48;;;;;;;;;;;;;;;;;;5031069;28;1162;-69
2023/01/24 00:25:13;;;;;;;;;;;;;;;;;;5033525;28;1263;-68
2023/01/24 00:27:39;;;;;;;;;;;;;;;;;;5033894;28;881;-67
2023/01/24 00:30:05;;;;;;;;;;;;;;;;;;5034006;28;1973;-67
2023/01/24 00:32:30;;;;;;;;;;;;;;;;;;5032175;28;1169;-67
2023/01/24 00:34:56;;;;;;;;;;;;;;;;;;5016293;28;1204;-67
2023/01/24 00:37:21;;;;;;;;;;;;;;;;;;5032309;28;1318;-66
2023/01/24 00:39:47;;;;;;;;;;;;;;;;;;5034320;28;903;-67
2023/01/24 00:42:12;;;;;;;;;;;;;;;;;;5032262;28;1030;-67
2023/01/24 00:44:37;;;;;;;;;;;;;;;;;;5015653;28;1324;-67
2023/01/24 00:47:02;;;;;;;;;;;;;;;;;;5032339;28;893;-67
2023/01/24 00:49:28;;;;;;;;;;;;;;;;;;5032464;28;1956;-67
2023/01/24 00:51:53;;;;;;;;;;;;;;;;;;5034123;28;904;-69
2023/01/24 00:54:18;;;;;;;;;;;;;;;;;;5032341;28;1354;-68
2023/01/24 00:56:44;;;;;;;;;;;;;;;;;;5034216;28;880;-69
2023/01/24 00:59:09;;;;;;;;;;;;;;;;;;5032997;28;1176;-69
2023/01/24 01:01:34;;;;;;;;;;;;;;;;;;5033761;28;881;-68
2023/01/24 01:03:59;;;;;;;;;;;;;;;;;;5016200;28;1262;-69
2023/01/24 01:06:25;;;;;;;;;;;;;;;;;;5015564;28;1330;-69
2023/01/24 01:08:51;;;;;;;;;;;;;;;;;;5032495;28;1959;-69
2023/01/24 01:11:17;;;;;;;;;;;;;;;;;;5031926;28;1247;-69
2023/01/24 01:13:42;;;;;;;;;;;;;;;;;;5032074;28;1089;-69
2023/01/24 01:16:12;;;;;;;;;;;;;;;;;;5031243;28;1219;-69
2023/01/24 01:18:37;;;;;;;;;;;;;;;;;;5031437;28;1289;-69
2023/01/24 01:21:03;;;;;;;;;;;;;;;;;;5033097;28;841;-69
2023/01/24 01:23:28;;;;;;;;;;;;;;;;;;5032570;28;880;-68
2023/01/24 01:25:58;;;;;;;;;;;;;;;;;;5032981;28;1161;-69
2023/01/24 01:28:23;;;;;;;;;;;;;;;;;;5031446;28;1295;-68
2023/01/24 01:30:51;;;;;;;;;;;;;;;;;;5031777;28;1961;-69
2023/01/24 01:33:16;;;;;;;;;;;;;;;;;;5030747;28;1351;-69
2023/01/24 01:35:42;;;;;;;;;;;;;;;;;;5031216;28;821;-69
2023/01/24 01:38:07;;;;;;;;;;;;;;;;;;5032526;28;963;-69
2023/01/24 01:40:32;;;;;;;;;;;;;;;;;;5014571;28;1291;-68
2023/01/24 01:42:58;;;;;;;;;;;;;;;;;;5016603;28;1117;-69
2023/01/24 01:45:26;;;;;;;;;;;;;;;;;;5031767;28;1323;-68
2023/01/24 01:47:51;;;;;;;;;;;;;;;;;;5029716;28;1271;-68
2023/01/24 01:50:22;;;;;;;;;;;;;;;;;;5030359;28;1907;-69
2023/01/24 01:52:48;;;;;;;;;;;;;;;;;;5034178;28;897;-67
2023/01/24 01:55:21;;;;;;;;;;;;;;;;;;5033617;28;1046;-67
2023/01/24 01:57:48;;;;;;;;;;;;;;;;;;5032044;28;1459;-67
2023/01/24 02:00:15;;;;;;;;;;;;;;;;;;5032816;28;861;-67
2023/01/24 02:02:46;;;;;;;;;;;;;;;;;;5032920;28;928;-67
2023/01/24 02:05:13;;;;;;;;;;;;;;;;;;5033046;28;1366;-68
2023/01/24 02:07:41;;;;;;;;;;;;;;;;;;5031253;28;1239;-69
2023/01/24 02:10:07;;;;;;;;;;;;;;;;;;5032567;28;1969;-69
2023/01/24 02:12:36;;;;;;;;;;;;;;;;;;5032574;28;837;-69
2023/01/24 02:17:50;;;;;;;;;;;;;;;;;;5032933;28;1180;-68
2023/01/24 02:20:24;;;;;;;;;;;;;;;;;;5032735;28;922;-68
2023/01/24 02:23:05;;;;;;;;;;;;;;;;;;5033032;28;779;-69
2023/01/24 02:25:42;;;;;;;;;;;;;;;;;;5030803;28;1149;-69
2023/01/24 02:28:08;;;;;;;;;;;;;;;;;;5031292;28;1234;-69
2023/01/24 02:30:34;;;;;;;;;;;;;;;;;;5030812;28;1918;-69
2023/01/24 02:32:59;;;;;;;;;;;;;;;;;;5032811;28;912;-69
2023/01/24 02:35:26;;;;;;;;;;;;;;;;;;5032416;28;900;-69
2023/01/24 02:37:51;;;;;;;;;;;;;;;;;;5032218;28;935;-69
2023/01/24 02:40:17;;;;;;;;;;;;;;;;;;5030805;28;1430;-69
2023/01/24 02:42:42;;;;;;;;;;;;;;;;;;5014049;28;1215;-68
2023/01/24 02:45:08;;;;;;;;;;;;;;;;;;5014069;28;1255;-68
2023/01/24 02:47:36;;;;;;;;;;;;;;;;;;5031614;28;1051;-68
2023/01/24 02:50:02;;;;;;;;;;;;;;;;;;5030335;28;1906;-68
2023/01/24 02:55:11;;;;;;;;;;;;;;;;;;5030939;28;710;-69
2023/01/24 03:00:21;;;;;;;;;;;;;;;;;;5031661;28;866;-69
2023/01/24 03:02:47;;;;;;;;;;;;;;;;;;5013639;28;1409;-69
2023/01/24 03:05:12;;;;;;;;;;;;;;;;;;5031349;28;923;-69
2023/01/24 03:07:45;;;;;;;;;;;;;;;;;;5031069;28;888;-69
2023/01/24 03:10:11;;;;;;;;;;;;;;;;;;5031093;28;1953;-69
2023/01/24 03:34:45;;;;;;;;;;;;;;;;;;5031265;28;671;-67
2023/01/24 03:37:10;;;;;;;;;;;;;;;;;;5030116;28;1469;-67
2023/01/24 03:39:58;;;;;;;;;;;;;;;;;;5030464;28;888;-67
2023/01/24 03:42:24;;;;;;;;;;;;;;;;;;5031166;28;936;-67
2023/01/24 03:44:50;;;;;;;;;;;;;;;;;;5030827;28;837;-67
2023/01/24 03:47:15;;;;;;;;;;;;;;;;;;5029834;28;1203;-67
2023/01/24 03:52:26;;;;;;;;;;;;;;;;;;5031644;28;678;-67
2023/01/24 03:54:51;;;;;;;;;;;;;;;;;;5030410;28;1204;-67
2023/01/24 03:57:17;;;;;;;;;;;;;;;;;;5033299;28;1162;-67
2023/01/24 03:59:42;;;;;;;;;;;;;;;;;;5034858;28;889;-67
2023/01/24 04:02:07;;;;;;;;;;;;;;;;;;5035501;28;939;-68
2023/01/24 04:07:16;;;;;;;;;;;;;;;;;;5035461;28;596;-67
2023/01/24 04:09:42;;;;;;;;;;;;;;;;;;5033641;28;1902;-68
2023/01/24 04:12:07;;;;;;;;;;;;;;;;;;5034480;28;829;-68
2023/01/24 04:14:32;;;;;;;;;;;;;;;;;;5034369;28;1106;-67
2023/01/24 04:16:57;;;;;;;;;;;;;;;;;;5032278;28;1188;-67
2023/01/24 04:19:23;;;;;;;;;;;;;;;;;;5033113;28;1134;-67
2023/01/24 04:21:48;;;;;;;;;;;;;;;;;;5033296;28;1547;-67
2023/01/24 04:24:13;;;;;;;;;;;;;;;;;;5033132;28;1197;-67
2023/01/24 04:26:39;;;;;;;;;;;;;;;;;;5034269;28;834;-67
2023/01/24 04:29:04;;;;;;;;;;;;;;;;;;5016236;28;1909;-67
2023/01/24 04:31:29;;;;;;;;;;;;;;;;;;5016179;28;1125;-68
2023/01/24 04:33:54;;;;;;;;;;;;;;;;;;5034158;28;870;-67
2023/01/24 04:36:20;;;;;;;;;;;;;;;;;;5033275;28;824;-67
2023/01/24 04:38:45;;;;;;;;;;;;;;;;;;5032994;28;1335;-68
2023/01/24 04:41:13;;;;;;;;;;;;;;;;;;5033832;28;809;-69
2023/01/24 04:43:40;;;;;;;;;;;;;;;;;;5016245;28;1239;-67
2023/01/24 04:46:06;;;;;;;;;;;;;;;;;;5016248;28;1175;-67
2023/01/24 04:48:31;;;;;;;;;;;;;;;;;;5033639;28;884;-67
2023/01/24 04:51:00;;;;;;;;;;;;;;;;;;5033332;28;1973;-68
2023/01/24 04:53:26;;;;;;;;;;;;;;;;;;5033602;28;1287;-67
2023/01/24 04:55:51;;;;;;;;;;;;;;;;;;5031988;28;1434;-67
2023/01/24 04:58:17;;;;;;;;;;;;;;;;;;5033894;28;888;-67
2023/01/24 05:00:42;;;;;;;;;;;;;;;;;;5032003;28;1051;-67
2023/01/24 05:03:07;;;;;;;;;;;;;;;;;;5032329;28;923;-67
2023/01/24 05:05:33;;;;;;;;;;;;;;;;;;5015811;28;1227;-67
2023/01/24 05:07:58;;;;;;;;;;;;;;;;;;5032037;28;1054;-67
2023/01/24 05:10:24;;;;;;;;;;;;;;;;;;5033513;28;1894;-67
2023/01/24 05:12:49;;;;;;;;;;;;;;;;;;5032536;28;834;-67
2023/01/24 05:15:14;;;;;;;;;;;;;;;;;;5033807;28;892;-67
2023/01/24 05:17:42;;;;;;;;;;;;;;;;;;5033453;28;1179;-67
2023/01/24 05:20:08;;;;;;;;;;;;;;;;;;5034037;28;947;-67
2023/01/24 05:22:33;;;;;;;;;;;;;;;;;;5032081;28;1307;-67
2023/01/24 05:24:59;;;;;;;;;;;;;;;;;;5031866;28;1169;-67
2023/01/24 05:27:24;;;;;;;;;;;;;;;;;;5031709;28;1535;-67
2023/01/24 05:29:49;;;;;;;;;;;;;;;;;;5032401;28;1914;-67
2023/01/24 05:32:15;;;;;;;;;;;;;;;;;;5033709;28;901;-67
2023/01/24 05:34:40;;;;;;;;;;;;;;;;;;5031811;28;1000;-67
2023/01/24 05:37:05;;;;;;;;;;;;;;;;;;5031417;28;1236;-69
2023/01/24 05:39:30;;;;;;;;;;;;;;;;;;5032166;28;963;-68
2023/01/24 05:41:56;;;;;;;;;;;;;;;;;;5030929;28;1249;-67
2023/01/24 05:44:21;;;;;;;;;;;;;;;;;;5031228;28;755;-67
2023/01/24 05:46:47;;;;;;;;;;;;;;;;;;5014815;28;1319;-67
2023/01/24 05:49:12;;;;;;;;;;;;;;;;;;5031401;28;1902;-68
2023/01/24 05:51:37;;;;;;;;;;;;;;;;;;5031045;28;1390;-67
2023/01/24 05:54:03;;;;;;;;;;;;;;;;;;5030723;28;1168;-67
2023/01/24 05:56:28;;;;;;;;;;;;;;;;;;5031004;28;1457;-67
2023/01/24 05:58:54;;;;;;;;;;;;;;;;;;5030803;28;1117;-67
2023/01/24 06:01:20;;;;;;;;;;;;;;;;;;5032519;28;967;-67
2023/01/24 06:03:47;;;;;;;;;;;;;;;;;;5015179;28;1234;-68
2023/01/24 06:06:14;;;;;;;;;;;;;;;;;;5032942;28;920;-67
2023/01/24 06:08:39;;;;;;;;;;;;;;;;;;5030663;28;1211;-69
2023/01/24 06:11:24;;;;;;;;;;;;;;;;;;5030131;28;1945;-69
2023/01/24 06:13:49;;;;;;;;;;;;;;;;;;5032098;28;881;-68
2023/01/24 06:16:19;;;;;;;;;;;;;;;;;;5030447;28;1362;-69
2023/01/24 06:18:44;;;;;;;;;;;;;;;;;;5029767;28;1184;-69
2023/01/24 06:21:32;;;;;;;;;;;;;;;;;;5031661;28;873;-69
2023/01/24 06:23:58;;;;;;;;;;;;;;;;;;5031886;28;1054;-69
2023/01/24 06:26:23;;;;;;;;;;;;;;;;;;5031952;28;912;-69
2023/01/24 06:28:49;;;;;;;;;;;;;;;;;;5030842;28;888;-69
2023/01/24 06:31:21;;;;;;;;;;;;;;;;;;5030078;28;1377;-68
2023/01/24 06:33:52;;;;;;;;;;;;;;;;;;5030924;28;1207;-68
2023/01/24 06:36:27;;;;;;;;;;;;;;;;;;5032424;28;903;-68
2023/01/24 06:38:52;;;;;;;;;;;;;;;;;;5030813;28;1102;-68
2023/01/24 06:41:17;;;;;;;;;;;;;;;;;;5014692;28;1358;-68
2023/01/24 06:43:44;;;;;;;;;;;;;;;;;;5030979;28;817;-69
2023/01/24 06:46:10;;;;;;;;;;;;;;;;;;5030492;28;1222;-70
2023/01/24 06:48:35;;;;;;;;;;;;;;;;;;5030707;28;1379;-69
2023/01/24 06:51:01;;;;;;;;;;;;;;;;;;5031354;28;1898;-69
2023/01/24 06:53:26;;;;;;;;;;;;;;;;;;5030670;28;947;-69
2023/01/24 06:55:51;;;;;;;;;;;;;;;;;;5030191;28;1204;-69
2023/01/24 06:58:17;;;;;;;;;;;;;;;;;;5029725;28;1148;-70
2023/01/24 07:00:42;;;;;;;;;;;;;;;;;;5030082;28;1086;-69
2023/01/24 07:03:07;;;;;;;;;;;;;;;;;;5013294;28;1192;-69
2023/01/24 07:05:34;;;;;;;;;;;;;;;;;;5029646;28;1207;-69
2023/01/24 07:08:00;;;;;;;;;;;;;;;;;;5029606;28;1247;-69
2023/01/24 07:10:25;;;;;;;;;;;;;;;;;;5029306;28;1979;-70
2023/01/24 07:12:51;;;;;;;;;;;;;;;;;;5028803;28;1294;-70
2023/01/24 07:15:16;;;;;;;;;;;;;;;;;;5013459;28;1398;-70
2023/01/24 07:17:42;;;;;;;;;;;;;;;;;;5029137;28;1098;-70
2023/01/24 07:20:09;;;;;;;;;;;;;;;;;;5029294;28;1180;-69
2023/01/24 07:22:36;;;;;;;;;;;;;;;;;;5013244;28;1180;-70
2023/01/24 07:25:01;;;;;;;;;;;;;;;;;;5029577;28;1291;-69
2023/01/24 07:27:27;;;;;;;;;;;;;;;;;;5012937;28;1227;-70
2023/01/24 07:29:52;;;;;;;;;;;;;;;;;;5029600;28;1923;-69
2023/01/24 07:32:18;;;;;;;;;;;;;;;;;;5032707;28;1237;-69
2023/01/24 07:34:43;;;;;;;;;;;;;;;;;;5033617;28;1200;-68
2023/01/24 07:37:08;;;;;;;;;;;;;;;;;;5033569;28;818;-68
2023/01/24 07:39:33;;;;;;;;;;;;;;;;;;5035078;28;889;-68
2023/01/24 07:41:59;;;;;;;;;;;;;;;;;;5033332;28;1135;-68
2023/01/24 07:44:24;;;;;;;;;;;;;;;;;;5035013;28;944;-67
2023/01/24 07:46:49;;;;;;;;;;;;;;;;;;5035309;28;866;-68
2023/01/24 07:49:15;;;;;;;;;;;;;;;;;;5033239;28;1926;-68
2023/01/24 07:51:40;;;;;;;;;;;;;;;;;;5033473;28;829;-68
2023/01/24 07:54:05;;;;;;;;;;;;;;;;;;5017085;28;1426;-70
2023/01/24 07:56:31;;;;;;;;;;;;;;;;;;5033374;28;1226;-70
2023/01/24 07:58:56;;;;;;;;;;;;;;;;;;5033122;28;1330;-70
2023/01/24 08:01:23;;;;;;;;;;;;;;;;;;5032604;28;1310;-69
2023/01/24 08:03:49;;;;;;;;;;;;;;;;;;5033273;28;825;-67
2023/01/24 08:06:14;;;;;;;;;;;;;;;;;;5016093;28;1489;-68
2023/01/24 08:08:39;;;;;;;;;;;;;;;;;;5032899;28;833;-68
2023/01/24 08:11:05;;;;;;;;;;;;;;;;;;5033369;28;1891;-68
2023/01/24 08:13:30;;;;;;;;;;;;;;;;;;5017398;28;1311;-68
2023/01/24 08:15:55;;;;;;;;;;;;;;;;;;5034900;28;909;-68
2023/01/24 08:18:21;;;;;;;;;;;;;;;;;;5032668;28;1253;-68
2023/01/24 08:20:46;;;;;;;;;;;;;;;;;;5033844;28;1257;-67
2023/01/24 08:23:11;;;;;;;;;;;;;;;;;;5035034;28;812;-68
2023/01/24 08:25:37;;;;;;;;;;;;;;;;;;5032935;28;868;-68
2023/01/24 08:28:02;;;;;;;;;;;;;;;;;;5031540;28;1196;-68
2023/01/24 08:30:27;;;;;;;;;;;;;;;;;;5032289;28;1911;-68
2023/01/24 08:33:02;;;;;;;;;;;;;;;;;;5032279;28;857;-68
2023/01/24 08:35:29;;;;;;;;;;;;;;;;;;5030508;28;1306;-69
2023/01/24 08:37:54;;;;;;;;;;;;;;;;;;5031314;28;801;-69
2023/01/24 08:40:19;;;;;;;;;;;;;;;;;;5031955;28;908;-69
2023/01/24 08:42:44;;;;;;;;;;;;;;;;;;5030691;28;1399;-69
2023/01/24 08:45:10;;;;;;;;;;;;;;;;;;5014987;28;1243;-68
2023/01/24 08:47:35;;;;;;;;;;;;;;;;;;5033483;28;861;-69
2023/01/24 08:50:00;;;;;;;;;;;;;;;;;;5015193;28;1894;-69
2023/01/24 08:52:26;;;;;;;;;;;;;;;;;;5030264;28;1208;-68
2023/01/24 08:54:51;;;;;;;;;;;;;;;;;;5031510;28;1299;-68
2023/01/24 08:57:17;;;;;;;;;;;;;;;;;;5031511;28;1225;-69
2023/01/24 08:59:42;;;;;;;;;;;;;;;;;;5014449;28;1271;-68
2023/01/24 09:02:09;;;;;;;;;;;;;;;;;;5032606;28;1165;-68
2023/01/24 09:04:34;;;;;;;;;;;;;;;;;;5033551;28;963;-68
2023/01/24 09:06:59;;;;;;;;;;;;;;;;;;5032355;28;1192;-69
2023/01/24 09:09:25;;;;;;;;;;;;;;;;;;5032980;28;1895;-68
2023/01/24 09:11:52;;;;;;;;;;;;;;;;;;5033563;28;845;-69
2023/01/24 09:14:17;;;;;;;;;;;;;;;;;;5032341;28;1374;-68
2023/01/24 09:16:42;;;;;;;;;;;;;;;;;;5031441;28;1326;-70
2023/01/24 09:19:10;;;;;;;;;;;;;;;;;;5032771;28;899;-70
2023/01/24 09:21:36;;;;;;;;;;;;;;;;;;5032807;28;849;-69
2023/01/24 09:24:01;;;;;;;;;;;;;;;;;;5032050;28;1200;-69
2023/01/24 09:26:27;;;;;;;;;;;;;;;;;;5032471;28;845;-70
2023/01/24 09:28:52;;;;;;;;;;;;;;;;;;5015031;28;1268;-70
2023/01/24 09:31:17;;;;;;;;;;;;;;;;;;5015486;28;1910;-68
2023/01/24 09:33:43;;;;;;;;;;;;;;;;;;5032561;28;1371;-68
2023/01/24 09:36:08;;;;;;;;;;;;;;;;;;5032210;28;1463;-68
2023/01/24 09:38:34;;;;;;;;;;;;;;;;;;5031690;28;1454;-68
2023/01/24 09:41:19;;;;;;;;;;;;;;;;;;5033893;28;900;-67
2023/01/24 09:43:58;;;;;;;;;;;;;;;;;;5033384;28;837;-69
2023/01/24 09:46:30;;;;;;;;;;;;;;;;;;5031872;28;1342;-69
2023/01/24 09:49:18;;;;;;;;;;;;;;;;;;5033371;28;826;-68
2023/01/24 09:51:47;;;;;;;;;;;;;;;;;;5003726;28;1348;-67
2023/01/24 09:54:15;;;;;;;;;;;;;;;;;;5030198;28;1172;-69
2023/01/24 09:56:42;;;;;;;;;;;;;;;;;;5031104;28;1283;-69
2023/01/24 09:59:23;;;;;;;;;;;;;;;;;;5031830;28;1097;-69
2023/01/24 10:01:48;;;;;;;;;;;;;;;;;;5031056;28;1303;-69
2023/01/24 10:04:16;;;;;;;;;;;;;;;;;;5030766;28;1330;-68
2023/01/24 10:06:45;;;;;;;;;;;;;;;;;;5032465;28;853;-69
2023/01/24 10:09:12;;;;;;;;;;;;;;;;;;5030721;28;1914;-68
2023/01/24 10:11:43;;;;;;;;;;;;;;;;;;5030701;28;1339;-69
2023/01/24 10:14:32;;;;;;;;;;;;;;;;;;5032229;28;908;-69
2023/01/24 10:16:57;;;;;;;;;;;;;;;;;;5031793;28;1090;-69
2023/01/24 10:19:33;;;;;;;;;;;;;;;;;;5031727;28;793;-68
2023/01/24 10:21:59;;;;;;;;;;;;;;;;;;5032357;28;895;-69
2023/01/24 10:24:28;;;;;;;;;;;;;;;;;;5030471;28;1228;-68
2023/01/24 10:26:53;;;;;;;;;;;;;;;;;;5032387;28;991;-69
2023/01/24 10:29:26;;;;;;;;;;;;;;;;;;5031575;28;1902;-68
2023/01/24 10:32:02;;;;;;;;;;;;;;;;;;5030374;28;1191;-68
2023/01/24 10:34:28;;;;;;;;;;;;;;;;;;5031126;28;845;-69
2023/01/24 10:36:57;;;;;;;;;;;;;;;;;;5032196;28;845;-69
2023/01/24 10:39:27;;;;;;;;;;;;;;;;;;5031178;28;1472;-69
2023/01/24 10:41:52;;;;;;;;;;;;;;;;;;5014667;28;1390;-69
2023/01/24 10:44:26;;;;;;;;;;;;;;;;;;5031514;28;916;-69
2023/01/24 10:47:09;;;;;;;;;;;;;;;;;;5030413;28;1342;-69
2023/01/24 10:49:38;;;;;;;;;;;;;;;;;;5029895;28;1886;-69
2023/01/24 10:52:12;;;;;;;;;;;;;;;;;;5031451;28;837;-69
2023/01/24 10:54:48;;;;;;;;;;;;;;;;;;5031287;28;813;-69
2023/01/24 10:57:34;;;;;;;;;;;;;;;;;;5030399;28;1287;-69
2023/01/24 11:00:25;;;;;;;;;;;;;;;;;;5031318;28;1104;-69
2023/01/24 11:02:51;;;;;;;;;;;;;;;;;;5023597;28;1382;-69
2023/01/24 11:05:17;;;;;;;;;;;;;;;;;;5014235;28;1339;-69
2023/01/24 11:07:54;;;;;;;;;;;;;;;;;;5031817;28;888;-68
2023/01/24 11:10:22;;;;;;;;;;;;;;;;;;5032517;28;1898;-69
2023/01/24 11:12:50;;;;;;;;;;;;;;;;;;5031040;28;1366;-69
2023/01/24 11:15:17;;;;;;;;;;;;;;;;;;5030945;28;1371;-69
2023/01/24 11:17:42;;;;;;;;;;;;;;;;;;5031144;28;1214;-69
2023/01/24 11:20:26;;;;;;;;;;;;;;;;;;5031515;28;1056;-69
2023/01/24 11:23:00;;;;;;;;;;;;;;;;;;5031651;28;873;-69
2023/01/24 11:25:25;;;;;;;;;;;;;;;;;;5031368;28;1019;-68
2023/01/24 11:27:51;;;;;;;;;;;;;;;;;;5031554;28;1024;-69
2023/01/24 11:30:19;;;;;;;;;;;;;;;;;;5029889;28;1902;-68
2023/01/24 11:32:50;;;;;;;;;;;;;;;;;;5031271;28;763;-68
2023/01/24 11:35:15;;;;;;;;;;;;;;;;;;5031112;28;996;-69
2023/01/24 11:37:40;;;;;;;;;;;;;;;;;;5029368;28;1244;-69
2023/01/24 11:40:31;;;;;;;;;;;;;;;;;;5031421;28;976;-69
2023/01/24 11:43:12;;;;;;;;;;;;;;;;;;5029725;28;1189;-69
2023/01/24 11:45:39;;;;;;;;;;;;;;;;;;5029464;28;1157;-70
2023/01/24 11:48:04;;;;;;;;;;;;;;;;;;5031481;28;647;-70
2023/01/24 11:50:48;;;;;;;;;;;;;;;;;;5029679;28;1890;-70
2023/01/24 11:53:42;;;;;;;;;;;;;;;;;;5031103;28;861;-70
2023/01/24 11:56:21;;;;;;;;;;;;;;;;;;4978327;28;1312;-69
2023/01/24 11:58:56;;;;;;;;;;;;;;;;;;5029283;28;1338;-70
2023/01/24 12:01:44;;;;;;;;;;;;;;;;;;5030234;28;1208;-70
2023/01/24 12:04:40;;;;;;;;;;;;;;;;;;5029679;28;1501;-70
2023/01/24 12:07:18;;;;;;;;;;;;;;;;;;5030189;28;1188;-70
2023/01/24 12:10:03;;;;;;;;;;;;;;;;;;5030962;28;1936;-70
2023/01/24 12:12:49;;;;;;;;;;;;;;;;;;5030816;28;900;-70
2023/01/24 12:15:23;;;;;;;;;;;;;;;;;;5031066;28;931;-69
2023/01/24 12:17:58;;;;;;;;;;;;;;;;;;5032827;28;1091;-69
2023/01/24 12:20:36;;;;;;;;;;;;;;;;;;5032844;28;1364;-69
2023/01/24 12:23:13;;;;;;;;;;;;;;;;;;5034417;28;825;-69
2023/01/24 12:25:42;;;;;;;;;;;;;;;;;;5034425;28;837;-70
2023/01/24 12:28:13;;;;;;;;;;;;;;;;;;5032939;28;1203;-70
2023/01/24 12:30:44;;;;;;;;;;;;;;;;;;5033327;28;1973;-70
2023/01/24 12:33:32;;;;;;;;;;;;;;;;;;5034859;28;885;-69
2023/01/24 12:36:15;;;;;;;;;;;;;;;;;;5033331;28;1317;-70
2023/01/24 12:38:45;;;;;;;;;;;;;;;;;;5033032;28;1287;-70
2023/01/24 12:41:29;;;;;;;;;;;;;;;;;;5033174;28;1242;-70
2023/01/24 12:44:00;;;;;;;;;;;;;;;;;;5033044;28;1208;-69
2023/01/24 12:46:28;;;;;;;;;;;;;;;;;;5033131;28;1412;-69
2023/01/24 12:49:03;;;;;;;;;;;;;;;;;;5033253;28;1268;-69
2023/01/24 12:51:31;;;;;;;;;;;;;;;;;;5032905;28;1910;-68
2023/01/24 12:53:56;;;;;;;;;;;;;;;;;;5034358;28;837;-69
2023/01/24 12:56:31;;;;;;;;;;;;;;;;;;5032611;28;1242;-69
2023/01/24 12:58:56;;;;;;;;;;;;;;;;;;5033564;28;845;-69
2023/01/24 13:01:40;;;;;;;;;;;;;;;;;;5033487;28;813;-69
2023/01/24 13:04:24;;;;;;;;;;;;;;;;;;5033420;28;888;-69
2023/01/24 13:06:58;;;;;;;;;;;;;;;;;;5032532;28;1225;-69
2023/01/24 13:09:36;;;;;;;;;;;;;;;;;;5032270;28;1906;-70
2023/01/24 13:12:03;;;;;;;;;;;;;;;;;;5032442;28;1360;-69
2023/01/24 13:14:34;;;;;;;;;;;;;;;;;;5032237;28;877;-69
2023/01/24 13:17:00;;;;;;;;;;;;;;;;;;5031171;28;1420;-70
2023/01/24 13:19:31;;;;;;;;;;;;;;;;;;5032031;28;1376;-69
2023/01/24 13:22:02;;;;;;;;;;;;;;;;;;5033146;28;987;-69
2023/01/24 13:24:48;;;;;;;;;;;;;;;;;;5032968;28;963;-69
2023/01/24 13:27:41;;;;;;;;;;;;;;;;;;5033020;28;928;-69
2023/01/24 13:30:09;;;;;;;;;;;;;;;;;;5032303;28;1953;-69
2023/01/24 13:32:39;;;;;;;;;;;;;;;;;;5032276;28;952;-69
2023/01/24 13:35:14;;;;;;;;;;;;;;;;;;5031574;28;1335;-69
2023/01/24 13:37:39;;;;;;;;;;;;;;;;;;5031156;28;1248;-69
2023/01/24 13:40:26;;;;;;;;;;;;;;;;;;5033025;28;877;-69
2023/01/24 13:42:52;;;;;;;;;;;;;;;;;;5032717;28;1112;-69
2023/01/24 13:45:30;;;;;;;;;;;;;;;;;;5031491;28;1299;-69
2023/01/24 13:47:57;;;;;;;;;;;;;;;;;;5033371;28;928;-70
2023/01/24 13:50:23;;;;;;;;;;;;;;;;;;5032656;28;1953;-69
2023/01/24 13:52:50;;;;;;;;;;;;;;;;;;5031007;28;1262;-68
2023/01/24 13:55:24;;;;;;;;;;;;;;;;;;5032619;28;759;-69
2023/01/24 13:58:02;;;;;;;;;;;;;;;;;;5032923;28;1002;-69
2023/01/24 14:00:30;;;;;;;;;;;;;;;;;;5031546;28;1232;-69
2023/01/24 14:02:58;;;;;;;;;;;;;;;;;;5032518;28;888;-69
2023/01/24 14:05:33;;;;;;;;;;;;;;;;;;5033171;28;841;-69
2023/01/24 14:08:00;;;;;;;;;;;;;;;;;;5031716;28;1476;-69
2023/01/24 14:10:36;;;;;;;;;;;;;;;;;;5031629;28;1953;-68
2023/01/24 14:13:01;;;;;;;;;;;;;;;;;;5031683;28;1199;-69
2023/01/24 14:15:31;;;;;;;;;;;;;;;;;;5031251;28;955;-69
2023/01/24 14:17:56;;;;;;;;;;;;;;;;;;5032548;28;1237;-69
2023/01/24 14:20:22;;;;;;;;;;;;;;;;;;5031605;28;913;-70
2023/01/24 14:22:50;;;;;;;;;;;;;;;;;;5032317;28;934;-69
2023/01/24 14:25:24;;;;;;;;;;;;;;;;;;5030848;28;1262;-69
2023/01/24 14:28:13;;;;;;;;;;;;;;;;;;5030484;28;1516;-70
2023/01/24 14:30:41;;;;;;;;;;;;;;;;;;5025752;28;1907;-69
2023/01/24 14:33:27;;;;;;;;;;;;;;;;;;5030553;28;1147;-69
2023/01/24 14:36:13;;;;;;;;;;;;;;;;;;5031165;28;892;-69
2023/01/24 14:38:38;;;;;;;;;;;;;;;;;;5029633;28;1288;-69
2023/01/24 14:41:03;;;;;;;;;;;;;;;;;;5029953;28;1288;-69
2023/01/24 14:43:38;;;;;;;;;;;;;;;;;;5030558;28;1034;-69
2023/01/24 14:46:19;;;;;;;;;;;;;;;;;;5031787;28;870;-70
2023/01/24 14:48:44;;;;;;;;;;;;;;;;;;5031343;28;1051;-70
2023/01/24 14:51:15;;;;;;;;;;;;;;;;;;5030647;28;1966;-69
2023/01/24 14:53:45;;;;;;;;;;;;;;;;;;5029862;28;1361;-70
2023/01/24 14:56:12;;;;;;;;;;;;;;;;;;5031808;28;829;-70
2023/01/24 14:58:37;;;;;;;;;;;;;;;;;;5013834;28;1304;-70
2023/01/24 15:01:03;;;;;;;;;;;;;;;;;;5030380;28;1313;-69
2023/01/24 15:03:30;;;;;;;;;;;;;;;;;;5030232;28;1038;-69
2023/01/24 15:05:55;;;;;;;;;;;;;;;;;;5031020;28;822;-69
2023/01/24 15:08:24;;;;;;;;;;;;;;;;;;5030239;28;1339;-69
2023/01/24 15:10:58;;;;;;;;;;;;;;;;;;5031445;28;1981;-72
2023/01/24 15:13:24;;;;;;;;;;;;;;;;;;5031810;28;888;-70
2023/01/24 15:15:50;;;;;;;;;;;;;;;;;;5031798;28;920;-74
2023/01/24 15:18:34;;;;;;;;;;;;;;;;;;5014658;28;1391;-71
2023/01/24 15:21:00;;;;;;;;;;;;;;;;;;5032469;28;1240;-75
2023/01/24 15:23:28;;;;;;;;;;;;;;;;;;5015224;28;1466;-72
2023/01/24 15:25:53;;;;;;;;;;;;;;;;;;5032190;28;825;-72
2023/01/24 15:28:21;;;;;;;;;;;;;;;;;;5030986;28;1337;-72
2023/01/24 15:30:59;;;;;;;;;;;;;;;;;;5030564;28;1969;-73
2023/01/24 15:33:38;;;;;;;;;;;;;;;;;;5032325;28;853;-77
2023/01/24 15:36:03;;;;;;;;;;;;;;;;;;5032923;28;899;-76
2023/01/24 15:38:32;;;;;;;;;;;;;;;;;;5032659;28;798;-74
2023/01/24 15:41:15;;;;;;;;;;;;;;;;;;5032755;28;841;-72
2023/01/24 15:43:54;;;;;;;;;;;;;;;;;;5033350;28;1375;-72
2023/01/24 15:49:29;;;;;;;;;;;;;;;;;;5032537;28;1906;-69
2023/01/24 15:52:15;;;;;;;;;;;;;;;;;;5032567;28;1215;-71
2023/01/24 15:54:42;;;;;;;;;;;;;;;;;;5036460;28;849;-67
2023/01/24 15:57:16;;;;;;;;;;;;;;;;;;5036173;28;908;-69
2023/01/24 15:59:43;;;;;;;;;;;;;;;;;;5035953;28;828;-68
2023/01/24 16:02:13;;;;;;;;;;;;;;;;;;5034976;28;1335;-67
2023/01/24 16:04:38;;;;;;;;;;;;;;;;;;5034521;28;1097;-68
2023/01/24 16:07:03;;;;;;;;;;;;;;;;;;5035220;28;922;-70
2023/01/24 16:09:29;;;;;;;;;;;;;;;;;;5034064;28;1918;-68
2023/01/24 16:11:54;;;;;;;;;;;;;;;;;;5016887;28;1361;-70
2023/01/24 16:14:21;;;;;;;;;;;;;;;;;;5035983;28;802;-68
2023/01/24 16:16:47;;;;;;;;;;;;;;;;;;5033804;28;1259;-68
2023/01/24 16:19:21;;;;;;;;;;;;;;;;;;5035150;28;817;-69
2023/01/24 16:21:47;;;;;;;;;;;;;;;;;;5033523;28;1291;-68
2023/01/24 16:24:12;;;;;;;;;;;;;;;;;;5034224;28;1207;-67
2023/01/24 16:26:39;;;;;;;;;;;;;;;;;;5034677;28;927;-68
2023/01/24 16:29:11;;;;;;;;;;;;;;;;;;5033757;28;1244;-71
2023/01/24 16:31:36;;;;;;;;;;;;;;;;;;5033311;28;1905;-71
2023/01/24 16:34:02;;;;;;;;;;;;;;;;;;5033630;28;1370;-75
2023/01/24 16:36:27;;;;;;;;;;;;;;;;;;5035124;28;1270;-75
2023/01/24 16:38:52;;;;;;;;;;;;;;;;;;5034391;28;1229;-68
2023/01/24 16:41:17;;;;;;;;;;;;;;;;;;5031655;28;1020;-68
2023/01/24 16:43:43;;;;;;;;;;;;;;;;;;5034372;28;896;-70
2023/01/24 16:46:19;;;;;;;;;;;;;;;;;;5033653;28;1247;-69
2023/01/24 16:48:44;;;;;;;;;;;;;;;;;;5034030;28;929;-72
2023/01/24 16:51:10;;;;;;;;;;;;;;;;;;5034231;28;1906;-70
2023/01/24 16:53:36;;;;;;;;;;;;;;;;;;5033598;28;1130;-69
2023/01/24 16:56:01;;;;;;;;;;;;;;;;;;5033729;28;1011;-71
2023/01/24 16:58:26;;;;;;;;;;;;;;;;;;5033789;28;906;-69
2023/01/24 17:00:52;;;;;;;;;;;;;;;;;;5034486;28;928;-70
2023/01/24 17:03:17;;;;;;;;;;;;;;;;;;5035197;28;1019;-70
2023/01/24 17:05:42;;;;;;;;;;;;;;;;;;5035287;28;1001;-69
2023/01/24 17:08:13;;;;;;;;;;;;;;;;;;5035757;28;892;-73
2023/01/24 17:10:40;;;;;;;;;;;;;;;;;;5034184;28;1906;-73
2023/01/24 17:13:06;;;;;;;;;;;;;;;;;;5035243;28;845;-70
2023/01/24 17:15:33;;;;;;;;;;;;;;;;;;5034194;28;1282;-73
2023/01/24 17:17:59;;;;;;;;;;;;;;;;;;5034948;28;1069;-70
2023/01/24 17:20:24;;;;;;;;;;;;;;;;;;5034366;28;901;-70
2023/01/24 17:22:49;;;;;;;;;;;;;;;;;;5033647;28;905;-69
2023/01/24 17:25:14;;;;;;;;;;;;;;;;;;5033409;28;884;-73
2023/01/24 17:27:40;;;;;;;;;;;;;;;;;;5035200;28;913;-69
2023/01/24 17:30:05;;;;;;;;;;;;;;;;;;5034405;28;1902;-70
2023/01/24 17:32:32;;;;;;;;;;;;;;;;;;5033963;28;905;-72
2023/01/24 17:34:57;;;;;;;;;;;;;;;;;;5035034;28;853;-71
2023/01/24 17:37:22;;;;;;;;;;;;;;;;;;5034521;28;956;-72
2023/01/24 17:39:49;;;;;;;;;;;;;;;;;;5033089;28;887;-70
2023/01/24 17:42:14;;;;;;;;;;;;;;;;;;5033273;28;1367;-72
2023/01/24 17:44:39;;;;;;;;;;;;;;;;;;5032891;28;1180;-72
2023/01/24 17:47:05;;;;;;;;;;;;;;;;;;5032545;28;1298;-71
2023/01/24 17:49:30;;;;;;;;;;;;;;;;;;5032729;28;1890;-71
2023/01/24 17:51:55;;;;;;;;;;;;;;;;;;5033168;28;1291;-71
2023/01/24 17:54:20;;;;;;;;;;;;;;;;;;5033497;28;999;-72
2023/01/24 17:56:46;;;;;;;;;;;;;;;;;;5033194;28;887;-72
2023/01/24 17:59:11;;;;;;;;;;;;;;;;;;5033889;28;1207;-73